Charles M. Schulz Sonoma County Airport
KSTS : now visible

Airfield :











YOU CAN JOIN US ON...

 
LOGIN :

Register | Disclaimer

   EN    FR    IT 

 









Legend :    VFR   Marginal VFR   IFR   Intensive IFR   Very Intensive IFR
Visi :
Ceiling :
>= 8 km
>= 3000ft
5 to 8 km
1000 to 3000 ft
1500m to 5 km
500 to 1000 ft
800 to 1500m
200 to 500 ft
< 800m
< 200 ft
Symbols :   Thunderstorms  Fog  Heavy snow  Heavy precipitations  Wind > 20 kt






- Airport Elevation : 128 ft


KSTS - Charles M. Schulz Sonoma County

CURRENT METAR :
  • 250353Z AUTO 14007KT 10SM CLR 16/11 A2987 RMK AO2 SLP109 T01610111

EXPIRED METARs :
  • 250253Z AUTO 16007KT 10SM CLR 20/12 A2986 RMK AO2 SLP106 T02000117 53003
  • 250153Z 14012KT 10SM CLR 24/12 A2985 RMK AO2 SLP101 T02440122
  • 250053Z 17010KT 10SM CLR 26/12 A2984 RMK AO2 SLP100 T02560117
  • 242353Z 16011KT 10SM CLR 27/12 A2985 RMK AO2 SLP102 T02720122 10311 20233 56008

TAF KSTS
Valid from the 25 at 00:00 until the 26 at 00:00 UTC


242334Z 2500/2524 18012KT P6SM SCT140
FM250400 17007KT P6SM BKN200
FM250600 VRB03KT P6SM SCT200
FM251300 VRB03KT 6SM BR FEW007 SCT200
FM251900 21009KT P6SM BKN200
KZOA FIR / North America



MET'MAP, your aeronautical weather chart ! - Copyright ORBIFLY December 2007 - Disclaimer

ORBIFLY MET'MAP TEAM :

Programming & Development : Alexandra Zaïnal
Original concept : Baudouin d'Aumeries
Technical & hardware support : Manuel Goepfert
Assistance : Marc-Olivier Méhu




SOURCES & CREDITS :

   NOAA       Earth
Advisory